sensor_id;sensor_type;location;lat;lon;timestamp;temperature;humidity
18884;DHT22;9574;47.282;9.640;2022-09-09T00:02:20;18.80;99.90
18884;DHT22;9574;47.282;9.640;2022-09-09T00:04:58;18.70;99.90
18884;DHT22;9574;47.282;9.640;2022-09-09T00:07:36;18.60;99.90
18884;DHT22;9574;47.282;9.640;2022-09-09T00:10:15;18.60;99.90
18884;DHT22;9574;47.282;9.640;2022-09-09T00:12:51;19.00;99.90
18884;DHT22;9574;47.282;9.640;2022-09-09T00:15:22;18.90;99.90
18884;DHT22;9574;47.282;9.640;2022-09-09T00:17:55;18.90;99.90
18884;DHT22;9574;47.282;9.640;2022-09-09T00:20:28;19.00;99.90
18884;DHT22;9574;47.282;9.640;2022-09-09T00:23:00;18.90;99.90
18884;DHT22;9574;47.282;9.640;2022-09-09T00:25:37;19.10;99.90
18884;DHT22;9574;47.282;9.640;2022-09-09T00:28:15;19.30;99.90
18884;DHT22;9574;47.282;9.640;2022-09-09T00:30:44;19.00;99.90
18884;DHT22;9574;47.282;9.640;2022-09-09T00:33:17;18.80;99.90
18884;DHT22;9574;47.282;9.640;2022-09-09T00:35:48;18.60;99.90
18884;DHT22;9574;47.282;9.640;2022-09-09T00:38:19;18.50;99.90
18884;DHT22;9574;47.282;9.640;2022-09-09T00:40:52;18.50;99.90
18884;DHT22;9574;47.282;9.640;2022-09-09T00:43:26;18.50;99.90
18884;DHT22;9574;47.282;9.640;2022-09-09T00:46:05;18.30;99.90
18884;DHT22;9574;47.282;9.640;2022-09-09T00:48:44;18.40;99.90
18884;DHT22;9574;47.282;9.640;2022-09-09T00:51:25;18.50;99.90
18884;DHT22;9574;47.282;9.640;2022-09-09T00:54:11;18.80;99.90
18884;DHT22;9574;47.282;9.640;2022-09-09T00:56:46;19.10;99.90
18884;DHT22;9574;47.282;9.640;2022-09-09T00:59:22;19.40;99.90
18884;DHT22;9574;47.282;9.640;2022-09-09T01:01:51;19.00;99.90
18884;DHT22;9574;47.282;9.640;2022-09-09T01:04:28;18.70;99.90
18884;DHT22;9574;47.282;9.640;2022-09-09T01:07:04;18.40;99.90
18884;DHT22;9574;47.282;9.640;2022-09-09T01:09:45;18.30;99.90
18884;DHT22;9574;47.282;9.640;2022-09-09T01:12:15;18.20;99.90
18884;DHT22;9574;47.282;9.640;2022-09-09T01:14:45;18.20;99.90
18884;DHT22;9574;47.282;9.640;2022-09-09T01:17:17;18.10;99.90
18884;DHT22;9574;47.282;9.640;2022-09-09T01:19:59;18.00;99.90
18884;DHT22;9574;47.282;9.640;2022-09-09T01:22:35;18.00;99.90
18884;DHT22;9574;47.282;9.640;2022-09-09T01:25:27;18.00;99.90
18884;DHT22;9574;47.282;9.640;2022-09-09T01:27:58;18.10;99.90
18884;DHT22;9574;47.282;9.640;2022-09-09T01:30:28;18.10;99.90
18884;DHT22;9574;47.282;9.640;2022-09-09T01:32:56;18.00;99.90
18884;DHT22;9574;47.282;9.640;2022-09-09T01:35:42;18.00;99.90
18884;DHT22;9574;47.282;9.640;2022-09-09T01:38:12;18.10;99.90
18884;DHT22;9574;47.282;9.640;2022-09-09T01:40:40;18.10;99.90
18884;DHT22;9574;47.282;9.640;2022-09-09T01:43:09;18.10;99.90
18884;DHT22;9574;47.282;9.640;2022-09-09T01:45:36;18.10;99.90
18884;DHT22;9574;47.282;9.640;2022-09-09T01:48:04;18.10;99.90
18884;DHT22;9574;47.282;9.640;2022-09-09T01:50:31;18.00;99.90
18884;DHT22;9574;47.282;9.640;2022-09-09T01:52:59;18.20;99.90
18884;DHT22;9574;47.282;9.640;2022-09-09T01:55:30;18.60;99.90
18884;DHT22;9574;47.282;9.640;2022-09-09T01:58:06;18.60;99.90
18884;DHT22;9574;47.282;9.640;2022-09-09T02:00:43;18.90;99.90
18884;DHT22;9574;47.282;9.640;2022-09-09T02:03:20;19.00;99.90
18884;DHT22;9574;47.282;9.640;2022-09-09T02:05:56;18.80;99.90
18884;DHT22;9574;47.282;9.640;2022-09-09T02:08:29;18.40;99.90
18884;DHT22;9574;47.282;9.640;2022-09-09T02:11:03;18.20;99.90
18884;DHT22;9574;47.282;9.640;2022-09-09T02:13:34;17.90;99.90
18884;DHT22;9574;47.282;9.640;2022-09-09T02:16:07;17.70;99.90
18884;DHT22;9574;47.282;9.640;2022-09-09T02:18:38;17.80;99.90
18884;DHT22;9574;47.282;9.640;2022-09-09T02:21:08;18.30;99.90
18884;DHT22;9574;47.282;9.640;2022-09-09T02:23:38;18.40;99.90
18884;DHT22;9574;47.282;9.640;2022-09-09T02:26:07;18.20;99.90
18884;DHT22;9574;47.282;9.640;2022-09-09T02:28:36;17.80;99.90
18884;DHT22;9574;47.282;9.640;2022-09-09T02:31:06;17.70;99.90
18884;DHT22;9574;47.282;9.640;2022-09-09T02:33:37;17.60;99.90
18884;DHT22;9574;47.282;9.640;2022-09-09T02:36:08;17.50;99.90
18884;DHT22;9574;47.282;9.640;2022-09-09T02:38:38;17.80;99.90
18884;DHT22;9574;47.282;9.640;2022-09-09T02:41:07;17.80;99.90
18884;DHT22;9574;47.282;9.640;2022-09-09T02:43:34;17.90;99.90
18884;DHT22;9574;47.282;9.640;2022-09-09T02:46:13;18.10;99.90
18884;DHT22;9574;47.282;9.640;2022-09-09T02:48:52;18.30;99.90
18884;DHT22;9574;47.282;9.640;2022-09-09T02:51:32;17.90;99.90
18884;DHT22;9574;47.282;9.640;2022-09-09T02:54:07;17.60;99.90
18884;DHT22;9574;47.282;9.640;2022-09-09T02:56:40;17.70;99.90
18884;DHT22;9574;47.282;9.640;2022-09-09T02:59:08;18.10;99.90
18884;DHT22;9574;47.282;9.640;2022-09-09T03:01:37;18.20;99.90
18884;DHT22;9574;47.282;9.640;2022-09-09T03:04:05;17.80;99.90
18884;DHT22;9574;47.282;9.640;2022-09-09T03:06:33;17.50;99.90
18884;DHT22;9574;47.282;9.640;2022-09-09T03:09:01;17.40;99.90
18884;DHT22;9574;47.282;9.640;2022-09-09T03:11:28;17.50;99.90
18884;DHT22;9574;47.282;9.640;2022-09-09T03:13:55;17.30;99.90
18884;DHT22;9574;47.282;9.640;2022-09-09T03:16:23;17.30;99.90
18884;DHT22;9574;47.282;9.640;2022-09-09T03:18:51;17.20;99.90
18884;DHT22;9574;47.282;9.640;2022-09-09T03:21:18;17.30;99.90
18884;DHT22;9574;47.282;9.640;2022-09-09T03:23:45;17.30;99.90
18884;DHT22;9574;47.282;9.640;2022-09-09T03:26:12;17.30;99.90
18884;DHT22;9574;47.282;9.640;2022-09-09T03:28:40;17.30;99.90
18884;DHT22;9574;47.282;9.640;2022-09-09T03:31:08;17.20;99.90
18884;DHT22;9574;47.282;9.640;2022-09-09T03:33:36;17.10;99.90
18884;DHT22;9574;47.282;9.640;2022-09-09T03:36:05;17.00;99.90
18884;DHT22;9574;47.282;9.640;2022-09-09T03:38:33;17.00;99.90
18884;DHT22;9574;47.282;9.640;2022-09-09T03:41:00;17.00;99.90
18884;DHT22;9574;47.282;9.640;2022-09-09T03:43:28;17.10;99.90
18884;DHT22;9574;47.282;9.640;2022-09-09T03:45:56;17.10;99.90
18884;DHT22;9574;47.282;9.640;2022-09-09T03:48:24;17.10;99.90
18884;DHT22;9574;47.282;9.640;2022-09-09T03:50:54;17.10;99.90
18884;DHT22;9574;47.282;9.640;2022-09-09T03:53:23;17.00;99.90
18884;DHT22;9574;47.282;9.640;2022-09-09T03:55:52;16.90;99.90
18884;DHT22;9574;47.282;9.640;2022-09-09T03:58:21;16.90;99.90
18884;DHT22;9574;47.282;9.640;2022-09-09T04:00:59;16.90;99.90
18884;DHT22;9574;47.282;9.640;2022-09-09T04:03:27;17.00;99.90
18884;DHT22;9574;47.282;9.640;2022-09-09T04:05:55;17.00;99.90
18884;DHT22;9574;47.282;9.640;2022-09-09T04:08:24;17.30;99.90
18884;DHT22;9574;47.282;9.640;2022-09-09T04:10:52;17.70;99.90
18884;DHT22;9574;47.282;9.640;2022-09-09T04:13:23;17.70;99.90
18884;DHT22;9574;47.282;9.640;2022-09-09T04:15:51;17.40;99.90
18884;DHT22;9574;47.282;9.640;2022-09-09T04:18:19;17.30;99.90
18884;DHT22;9574;47.282;9.640;2022-09-09T04:20:46;17.20;99.90
18884;DHT22;9574;47.282;9.640;2022-09-09T04:23:14;17.10;99.90
18884;DHT22;9574;47.282;9.640;2022-09-09T04:25:45;17.30;99.90
18884;DHT22;9574;47.282;9.640;2022-09-09T04:28:13;17.30;99.90
18884;DHT22;9574;47.282;9.640;2022-09-09T04:30:40;17.30;99.90
18884;DHT22;9574;47.282;9.640;2022-09-09T04:33:07;17.30;99.90
18884;DHT22;9574;47.282;9.640;2022-09-09T04:35:35;17.20;99.90
18884;DHT22;9574;47.282;9.640;2022-09-09T04:38:02;17.20;99.90
18884;DHT22;9574;47.282;9.640;2022-09-09T04:40:29;17.20;99.90
18884;DHT22;9574;47.282;9.640;2022-09-09T04:42:59;17.10;99.90
18884;DHT22;9574;47.282;9.640;2022-09-09T04:45:27;17.10;99.90
18884;DHT22;9574;47.282;9.640;2022-09-09T04:47:54;17.30;99.90
18884;DHT22;9574;47.282;9.640;2022-09-09T04:50:21;17.60;99.90
18884;DHT22;9574;47.282;9.640;2022-09-09T04:52:48;17.80;99.90
18884;DHT22;9574;47.282;9.640;2022-09-09T04:55:15;17.90;99.90
18884;DHT22;9574;47.282;9.640;2022-09-09T04:57:42;17.70;99.90
18884;DHT22;9574;47.282;9.640;2022-09-09T05:00:11;17.80;99.90
18884;DHT22;9574;47.282;9.640;2022-09-09T05:02:39;18.00;99.90
18884;DHT22;9574;47.282;9.640;2022-09-09T05:05:08;17.90;99.90
18884;DHT22;9574;47.282;9.640;2022-09-09T05:07:37;17.50;99.90
18884;DHT22;9574;47.282;9.640;2022-09-09T05:10:04;17.40;99.90
18884;DHT22;9574;47.282;9.640;2022-09-09T05:12:31;17.30;99.90
18884;DHT22;9574;47.282;9.640;2022-09-09T05:14:58;17.10;99.90
18884;DHT22;9574;47.282;9.640;2022-09-09T05:17:27;17.00;99.90
18884;DHT22;9574;47.282;9.640;2022-09-09T05:19:54;16.90;99.90
18884;DHT22;9574;47.282;9.640;2022-09-09T05:22:21;16.80;99.90
18884;DHT22;9574;47.282;9.640;2022-09-09T05:24:49;17.00;99.90
18884;DHT22;9574;47.282;9.640;2022-09-09T05:27:17;17.30;99.90
18884;DHT22;9574;47.282;9.640;2022-09-09T05:29:45;17.40;99.90
18884;DHT22;9574;47.282;9.640;2022-09-09T05:32:12;17.40;99.90
18884;DHT22;9574;47.282;9.640;2022-09-09T05:34:42;17.20;99.90
18884;DHT22;9574;47.282;9.640;2022-09-09T05:37:08;17.40;99.90
18884;DHT22;9574;47.282;9.640;2022-09-09T05:39:35;17.60;99.90
18884;DHT22;9574;47.282;9.640;2022-09-09T05:42:04;17.60;99.90
18884;DHT22;9574;47.282;9.640;2022-09-09T05:44:31;17.50;99.90
18884;DHT22;9574;47.282;9.640;2022-09-09T05:46:58;17.30;99.90
18884;DHT22;9574;47.282;9.640;2022-09-09T05:49:25;17.10;99.90
18884;DHT22;9574;47.282;9.640;2022-09-09T05:51:53;17.10;99.90
18884;DHT22;9574;47.282;9.640;2022-09-09T05:54:20;17.40;99.90
18884;DHT22;9574;47.282;9.640;2022-09-09T05:56:47;17.30;99.90
18884;DHT22;9574;47.282;9.640;2022-09-09T05:59:15;17.40;99.90
18884;DHT22;9574;47.282;9.640;2022-09-09T06:01:42;17.50;99.90
18884;DHT22;9574;47.282;9.640;2022-09-09T06:04:10;17.30;99.90
18884;DHT22;9574;47.282;9.640;2022-09-09T06:06:38;17.40;99.90
18884;DHT22;9574;47.282;9.640;2022-09-09T06:09:08;17.60;99.90
18884;DHT22;9574;47.282;9.640;2022-09-09T06:11:37;17.70;99.90
18884;DHT22;9574;47.282;9.640;2022-09-09T06:14:05;17.50;99.90
18884;DHT22;9574;47.282;9.640;2022-09-09T06:16:33;17.80;99.90
18884;DHT22;9574;47.282;9.640;2022-09-09T06:19:01;17.90;99.90
18884;DHT22;9574;47.282;9.640;2022-09-09T06:21:31;17.90;99.90
18884;DHT22;9574;47.282;9.640;2022-09-09T06:23:59;18.00;99.90
18884;DHT22;9574;47.282;9.640;2022-09-09T06:26:30;17.90;99.90
18884;DHT22;9574;47.282;9.640;2022-09-09T06:28:57;18.10;99.90
18884;DHT22;9574;47.282;9.640;2022-09-09T06:31:26;18.20;99.90
18884;DHT22;9574;47.282;9.640;2022-09-09T06:33:56;17.90;99.90
18884;DHT22;9574;47.282;9.640;2022-09-09T06:36:25;17.70;99.90
18884;DHT22;9574;47.282;9.640;2022-09-09T06:38:52;17.60;99.90
18884;DHT22;9574;47.282;9.640;2022-09-09T06:41:21;17.30;99.90
18884;DHT22;9574;47.282;9.640;2022-09-09T06:43:50;17.30;99.90
18884;DHT22;9574;47.282;9.640;2022-09-09T06:46:18;17.60;99.90
18884;DHT22;9574;47.282;9.640;2022-09-09T06:48:46;17.50;99.90
18884;DHT22;9574;47.282;9.640;2022-09-09T06:51:14;17.40;99.90
18884;DHT22;9574;47.282;9.640;2022-09-09T06:53:43;17.30;99.90
18884;DHT22;9574;47.282;9.640;2022-09-09T06:56:22;17.40;99.90
18884;DHT22;9574;47.282;9.640;2022-09-09T06:58:51;17.40;99.90
18884;DHT22;9574;47.282;9.640;2022-09-09T07:01:21;17.40;99.90
18884;DHT22;9574;47.282;9.640;2022-09-09T07:03:50;17.40;99.90
18884;DHT22;9574;47.282;9.640;2022-09-09T07:06:19;17.50;99.90
18884;DHT22;9574;47.282;9.640;2022-09-09T07:08:50;17.50;99.90
18884;DHT22;9574;47.282;9.640;2022-09-09T07:11:19;17.50;99.90
18884;DHT22;9574;47.282;9.640;2022-09-09T07:13:46;17.50;99.90
18884;DHT22;9574;47.282;9.640;2022-09-09T07:16:17;17.60;99.90
18884;DHT22;9574;47.282;9.640;2022-09-09T07:18:44;17.70;99.90
18884;DHT22;9574;47.282;9.640;2022-09-09T07:21:12;18.00;99.90
18884;DHT22;9574;47.282;9.640;2022-09-09T07:23:41;18.20;99.90
18884;DHT22;9574;47.282;9.640;2022-09-09T07:26:09;18.30;99.90
18884;DHT22;9574;47.282;9.640;2022-09-09T07:28:37;18.60;99.90
18884;DHT22;9574;47.282;9.640;2022-09-09T07:31:05;18.80;99.90
18884;DHT22;9574;47.282;9.640;2022-09-09T07:33:34;18.80;99.90
18884;DHT22;9574;47.282;9.640;2022-09-09T07:36:07;18.90;99.90
18884;DHT22;9574;47.282;9.640;2022-09-09T07:38:38;18.90;99.90
18884;DHT22;9574;47.282;9.640;2022-09-09T07:41:08;19.20;99.90
18884;DHT22;9574;47.282;9.640;2022-09-09T07:43:38;19.20;99.90
18884;DHT22;9574;47.282;9.640;2022-09-09T07:46:06;19.30;99.90
18884;DHT22;9574;47.282;9.640;2022-09-09T07:48:34;19.30;99.90
18884;DHT22;9574;47.282;9.640;2022-09-09T07:51:06;19.30;99.90
18884;DHT22;9574;47.282;9.640;2022-09-09T07:53:34;19.40;99.90
18884;DHT22;9574;47.282;9.640;2022-09-09T07:56:06;19.50;99.90
18884;DHT22;9574;47.282;9.640;2022-09-09T07:58:35;19.50;99.90
18884;DHT22;9574;47.282;9.640;2022-09-09T08:01:06;19.50;99.90
18884;DHT22;9574;47.282;9.640;2022-09-09T08:03:34;19.50;99.90
18884;DHT22;9574;47.282;9.640;2022-09-09T08:06:02;19.50;99.90
18884;DHT22;9574;47.282;9.640;2022-09-09T08:08:29;19.40;99.90
18884;DHT22;9574;47.282;9.640;2022-09-09T08:11:07;19.30;99.90
18884;DHT22;9574;47.282;9.640;2022-09-09T08:13:35;19.30;99.90
18884;DHT22;9574;47.282;9.640;2022-09-09T08:16:06;19.10;99.90
18884;DHT22;9574;47.282;9.640;2022-09-09T08:18:35;19.00;99.90
18884;DHT22;9574;47.282;9.640;2022-09-09T08:21:08;18.90;99.90
18884;DHT22;9574;47.282;9.640;2022-09-09T08:23:38;18.80;99.90
18884;DHT22;9574;47.282;9.640;2022-09-09T08:26:06;18.80;99.90
18884;DHT22;9574;47.282;9.640;2022-09-09T08:28:34;18.80;99.90
18884;DHT22;9574;47.282;9.640;2022-09-09T08:31:09;18.90;99.90
18884;DHT22;9574;47.282;9.640;2022-09-09T08:33:38;18.80;99.90
18884;DHT22;9574;47.282;9.640;2022-09-09T08:36:08;18.50;99.90
18884;DHT22;9574;47.282;9.640;2022-09-09T08:38:35;18.10;99.90
18884;DHT22;9574;47.282;9.640;2022-09-09T08:41:32;18.00;99.90
18884;DHT22;9574;47.282;9.640;2022-09-09T08:44:07;18.00;99.90
18884;DHT22;9574;47.282;9.640;2022-09-09T08:46:42;18.00;99.90
18884;DHT22;9574;47.282;9.640;2022-09-09T08:49:23;17.70;99.90
18884;DHT22;9574;47.282;9.640;2022-09-09T08:51:55;17.70;99.90
18884;DHT22;9574;47.282;9.640;2022-09-09T08:54:23;17.70;99.90
18884;DHT22;9574;47.282;9.640;2022-09-09T08:56:51;17.40;99.90
18884;DHT22;9574;47.282;9.640;2022-09-09T08:59:18;17.10;99.90
18884;DHT22;9574;47.282;9.640;2022-09-09T09:01:57;17.00;99.90
18884;DHT22;9574;47.282;9.640;2022-09-09T09:04:47;16.90;99.90
18884;DHT22;9574;47.282;9.640;2022-09-09T09:07:26;16.90;99.90
18884;DHT22;9574;47.282;9.640;2022-09-09T09:10:01;16.80;99.90
18884;DHT22;9574;47.282;9.640;2022-09-09T09:12:35;16.80;99.90
18884;DHT22;9574;47.282;9.640;2022-09-09T09:15:11;16.80;99.90
18884;DHT22;9574;47.282;9.640;2022-09-09T09:17:44;16.50;99.90
18884;DHT22;9574;47.282;9.640;2022-09-09T09:20:14;16.40;99.90
18884;DHT22;9574;47.282;9.640;2022-09-09T09:22:48;16.40;99.90
18884;DHT22;9574;47.282;9.640;2022-09-09T09:25:18;16.40;99.90
18884;DHT22;9574;47.282;9.640;2022-09-09T09:27:52;16.40;99.90
18884;DHT22;9574;47.282;9.640;2022-09-09T09:30:23;16.50;99.90
18884;DHT22;9574;47.282;9.640;2022-09-09T09:32:54;16.50;99.90
18884;DHT22;9574;47.282;9.640;2022-09-09T09:35:23;16.70;99.90
18884;DHT22;9574;47.282;9.640;2022-09-09T09:37:50;16.70;99.90
18884;DHT22;9574;47.282;9.640;2022-09-09T09:40:19;16.70;99.90
18884;DHT22;9574;47.282;9.640;2022-09-09T09:42:51;16.80;99.90
18884;DHT22;9574;47.282;9.640;2022-09-09T09:45:27;16.80;99.90
18884;DHT22;9574;47.282;9.640;2022-09-09T09:47:59;16.80;99.90
18884;DHT22;9574;47.282;9.640;2022-09-09T09:50:30;16.80;99.90
18884;DHT22;9574;47.282;9.640;2022-09-09T09:53:00;16.90;99.90
18884;DHT22;9574;47.282;9.640;2022-09-09T09:55:31;17.00;99.90
18884;DHT22;9574;47.282;9.640;2022-09-09T09:58:03;17.20;99.90
18884;DHT22;9574;47.282;9.640;2022-09-09T10:00:30;17.30;99.90
18884;DHT22;9574;47.282;9.640;2022-09-09T10:02:59;17.40;99.90
18884;DHT22;9574;47.282;9.640;2022-09-09T10:05:30;17.50;99.90
18884;DHT22;9574;47.282;9.640;2022-09-09T10:08:01;17.60;99.90
18884;DHT22;9574;47.282;9.640;2022-09-09T10:10:36;17.70;99.90
18884;DHT22;9574;47.282;9.640;2022-09-09T10:13:11;17.70;99.90
18884;DHT22;9574;47.282;9.640;2022-09-09T10:15:48;17.60;99.90
18884;DHT22;9574;47.282;9.640;2022-09-09T10:18:43;17.70;99.90
18884;DHT22;9574;47.282;9.640;2022-09-09T10:21:27;17.80;99.90
18884;DHT22;9574;47.282;9.640;2022-09-09T10:24:17;18.00;99.90
18884;DHT22;9574;47.282;9.640;2022-09-09T10:26:55;18.00;99.90
18884;DHT22;9574;47.282;9.640;2022-09-09T10:29:44;18.10;99.90
18884;DHT22;9574;47.282;9.640;2022-09-09T10:32:38;18.00;99.90
18884;DHT22;9574;47.282;9.640;2022-09-09T10:35:12;18.10;99.90
18884;DHT22;9574;47.282;9.640;2022-09-09T10:38:08;18.20;99.90
18884;DHT22;9574;47.282;9.640;2022-09-09T10:40:39;17.90;99.90
18884;DHT22;9574;47.282;9.640;2022-09-09T10:43:14;17.60;99.90
18884;DHT22;9574;47.282;9.640;2022-09-09T10:45:53;17.60;99.90
18884;DHT22;9574;47.282;9.640;2022-09-09T10:48:31;17.30;99.90
18884;DHT22;9574;47.282;9.640;2022-09-09T10:51:20;17.10;99.90
18884;DHT22;9574;47.282;9.640;2022-09-09T10:54:00;17.10;99.90
18884;DHT22;9574;47.282;9.640;2022-09-09T10:56:30;17.20;99.90
18884;DHT22;9574;47.282;9.640;2022-09-09T10:59:02;17.40;99.90
18884;DHT22;9574;47.282;9.640;2022-09-09T11:01:36;17.60;99.90
18884;DHT22;9574;47.282;9.640;2022-09-09T11:04:12;17.80;99.90
18884;DHT22;9574;47.282;9.640;2022-09-09T11:06:46;17.90;99.90
18884;DHT22;9574;47.282;9.640;2022-09-09T11:09:17;18.30;99.90
18884;DHT22;9574;47.282;9.640;2022-09-09T11:11:51;18.80;99.90
18884;DHT22;9574;47.282;9.640;2022-09-09T11:14:22;19.50;99.90
18884;DHT22;9574;47.282;9.640;2022-09-09T11:16:58;20.30;99.90
18884;DHT22;9574;47.282;9.640;2022-09-09T11:19:32;21.20;99.90
18884;DHT22;9574;47.282;9.640;2022-09-09T11:22:02;21.80;99.90
18884;DHT22;9574;47.282;9.640;2022-09-09T11:24:35;21.90;99.90
18884;DHT22;9574;47.282;9.640;2022-09-09T11:27:10;21.60;99.90
18884;DHT22;9574;47.282;9.640;2022-09-09T11:33:00;21.50;99.90
18884;DHT22;9574;47.282;9.640;2022-09-09T11:35:38;21.80;99.90
18884;DHT22;9574;47.282;9.640;2022-09-09T11:38:21;21.80;99.90
18884;DHT22;9574;47.282;9.640;2022-09-09T11:40:57;22.40;99.90
18884;DHT22;9574;47.282;9.640;2022-09-09T11:43:29;22.80;99.90
18884;DHT22;9574;47.282;9.640;2022-09-09T11:46:02;22.80;99.90
18884;DHT22;9574;47.282;9.640;2022-09-09T11:48:33;22.70;99.90
18884;DHT22;9574;47.282;9.640;2022-09-09T11:51:09;22.70;99.90
18884;DHT22;9574;47.282;9.640;2022-09-09T11:53:48;22.60;99.90
18884;DHT22;9574;47.282;9.640;2022-09-09T11:56:25;22.80;99.90
18884;DHT22;9574;47.282;9.640;2022-09-09T11:58:59;23.20;99.90
18884;DHT22;9574;47.282;9.640;2022-09-09T12:01:34;23.50;99.90
18884;DHT22;9574;47.282;9.640;2022-09-09T12:04:17;23.40;99.90
18884;DHT22;9574;47.282;9.640;2022-09-09T12:06:46;23.10;99.90
18884;DHT22;9574;47.282;9.640;2022-09-09T12:09:22;22.70;99.90
18884;DHT22;9574;47.282;9.640;2022-09-09T12:12:05;22.40;99.90
18884;DHT22;9574;47.282;9.640;2022-09-09T12:14:37;22.30;99.90
18884;DHT22;9574;47.282;9.640;2022-09-09T12:17:19;22.30;99.90
18884;DHT22;9574;47.282;9.640;2022-09-09T12:19:48;22.40;99.90
18884;DHT22;9574;47.282;9.640;2022-09-09T12:22:35;23.00;99.90
18884;DHT22;9574;47.282;9.640;2022-09-09T12:25:14;23.50;99.90
18884;DHT22;9574;47.282;9.640;2022-09-09T12:27:48;23.50;99.90
18884;DHT22;9574;47.282;9.640;2022-09-09T12:30:19;23.30;99.90
18884;DHT22;9574;47.282;9.640;2022-09-09T12:32:47;23.10;99.90
18884;DHT22;9574;47.282;9.640;2022-09-09T12:35:20;23.00;99.90
18884;DHT22;9574;47.282;9.640;2022-09-09T12:37:51;22.80;99.90
18884;DHT22;9574;47.282;9.640;2022-09-09T12:40:22;22.20;99.90
18884;DHT22;9574;47.282;9.640;2022-09-09T12:42:51;21.90;99.90
18884;DHT22;9574;47.282;9.640;2022-09-09T12:45:19;21.80;99.90
18884;DHT22;9574;47.282;9.640;2022-09-09T12:47:49;21.90;99.90
18884;DHT22;9574;47.282;9.640;2022-09-09T12:50:20;21.90;99.90
18884;DHT22;9574;47.282;9.640;2022-09-09T12:52:49;21.80;99.90
18884;DHT22;9574;47.282;9.640;2022-09-09T12:55:19;21.50;99.90
18884;DHT22;9574;47.282;9.640;2022-09-09T12:57:48;21.60;99.90
18884;DHT22;9574;47.282;9.640;2022-09-09T13:00:20;21.60;99.90
18884;DHT22;9574;47.282;9.640;2022-09-09T13:02:50;21.50;99.90
18884;DHT22;9574;47.282;9.640;2022-09-09T13:05:21;21.70;99.90
18884;DHT22;9574;47.282;9.640;2022-09-09T13:07:48;22.10;99.90
18884;DHT22;9574;47.282;9.640;2022-09-09T13:10:23;22.80;99.90
18884;DHT22;9574;47.282;9.640;2022-09-09T13:12:55;23.40;99.90
18884;DHT22;9574;47.282;9.640;2022-09-09T13:15:27;24.20;99.90
18884;DHT22;9574;47.282;9.640;2022-09-09T13:17:56;24.70;99.90
18884;DHT22;9574;47.282;9.640;2022-09-09T13:20:24;24.90;99.90
18884;DHT22;9574;47.282;9.640;2022-09-09T13:22:53;25.00;99.90
18884;DHT22;9574;47.282;9.640;2022-09-09T13:25:23;24.90;99.90
18884;DHT22;9574;47.282;9.640;2022-09-09T13:27:58;24.60;99.90
18884;DHT22;9574;47.282;9.640;2022-09-09T13:30:29;24.20;99.90
18884;DHT22;9574;47.282;9.640;2022-09-09T13:33:01;23.80;99.90
18884;DHT22;9574;47.282;9.640;2022-09-09T13:35:28;23.50;99.90
18884;DHT22;9574;47.282;9.640;2022-09-09T13:37:56;23.40;99.90
18884;DHT22;9574;47.282;9.640;2022-09-09T13:40:23;23.50;99.90
18884;DHT22;9574;47.282;9.640;2022-09-09T13:42:52;23.40;99.90
18884;DHT22;9574;47.282;9.640;2022-09-09T13:45:23;23.40;99.90
18884;DHT22;9574;47.282;9.640;2022-09-09T13:47:53;23.30;99.90
18884;DHT22;9574;47.282;9.640;2022-09-09T13:50:22;23.20;99.90
18884;DHT22;9574;47.282;9.640;2022-09-09T13:52:50;23.20;99.90
18884;DHT22;9574;47.282;9.640;2022-09-09T13:55:19;23.30;99.90
18884;DHT22;9574;47.282;9.640;2022-09-09T13:57:51;23.60;99.90
18884;DHT22;9574;47.282;9.640;2022-09-09T14:00:19;23.70;99.90
18884;DHT22;9574;47.282;9.640;2022-09-09T14:02:46;23.90;99.90
18884;DHT22;9574;47.282;9.640;2022-09-09T14:05:15;24.20;99.90
18884;DHT22;9574;47.282;9.640;2022-09-09T14:07:43;24.20;99.90
18884;DHT22;9574;47.282;9.640;2022-09-09T14:10:12;24.30;99.90
18884;DHT22;9574;47.282;9.640;2022-09-09T14:12:39;24.40;99.90
18884;DHT22;9574;47.282;9.640;2022-09-09T14:15:07;24.40;99.90
18884;DHT22;9574;47.282;9.640;2022-09-09T14:17:35;24.60;99.90
18884;DHT22;9574;47.282;9.640;2022-09-09T14:20:02;24.50;99.90
18884;DHT22;9574;47.282;9.640;2022-09-09T14:22:31;24.00;99.90
18884;DHT22;9574;47.282;9.640;2022-09-09T14:24:58;23.60;99.90
18884;DHT22;9574;47.282;9.640;2022-09-09T14:27:26;23.80;99.90
18884;DHT22;9574;47.282;9.640;2022-09-09T14:29:58;24.00;99.90
18884;DHT22;9574;47.282;9.640;2022-09-09T14:32:26;24.20;99.90
18884;DHT22;9574;47.282;9.640;2022-09-09T14:34:54;24.50;99.90
18884;DHT22;9574;47.282;9.640;2022-09-09T14:37:22;24.40;99.90
18884;DHT22;9574;47.282;9.640;2022-09-09T14:39:50;24.60;99.90
18884;DHT22;9574;47.282;9.640;2022-09-09T14:42:21;24.60;99.90
18884;DHT22;9574;47.282;9.640;2022-09-09T14:44:49;24.50;99.90
18884;DHT22;9574;47.282;9.640;2022-09-09T14:47:16;24.60;99.90
18884;DHT22;9574;47.282;9.640;2022-09-09T14:49:46;24.60;99.90
18884;DHT22;9574;47.282;9.640;2022-09-09T14:52:15;24.50;99.90
18884;DHT22;9574;47.282;9.640;2022-09-09T14:54:43;24.40;99.90
18884;DHT22;9574;47.282;9.640;2022-09-09T14:57:11;24.20;99.90
18884;DHT22;9574;47.282;9.640;2022-09-09T14:59:38;23.90;99.90
18884;DHT22;9574;47.282;9.640;2022-09-09T15:02:05;23.60;99.90
18884;DHT22;9574;47.282;9.640;2022-09-09T15:04:34;23.20;99.90
18884;DHT22;9574;47.282;9.640;2022-09-09T15:07:01;22.90;99.90
18884;DHT22;9574;47.282;9.640;2022-09-09T15:09:28;22.90;99.90
18884;DHT22;9574;47.282;9.640;2022-09-09T15:11:55;23.00;99.90
18884;DHT22;9574;47.282;9.640;2022-09-09T15:14:23;23.20;99.90
18884;DHT22;9574;47.282;9.640;2022-09-09T15:16:51;23.10;99.90
18884;DHT22;9574;47.282;9.640;2022-09-09T15:19:18;23.30;99.90
18884;DHT22;9574;47.282;9.640;2022-09-09T15:21:45;23.50;99.90
18884;DHT22;9574;47.282;9.640;2022-09-09T15:24:13;23.50;99.90
18884;DHT22;9574;47.282;9.640;2022-09-09T15:26:40;23.30;99.90
18884;DHT22;9574;47.282;9.640;2022-09-09T15:29:07;22.90;99.90
18884;DHT22;9574;47.282;9.640;2022-09-09T15:31:36;23.00;99.90
18884;DHT22;9574;47.282;9.640;2022-09-09T15:34:07;22.90;99.90
18884;DHT22;9574;47.282;9.640;2022-09-09T15:36:35;22.60;99.90
18884;DHT22;9574;47.282;9.640;2022-09-09T15:39:04;22.70;99.90
18884;DHT22;9574;47.282;9.640;2022-09-09T15:41:31;22.80;99.90
18884;DHT22;9574;47.282;9.640;2022-09-09T15:43:59;22.80;99.90
18884;DHT22;9574;47.282;9.640;2022-09-09T15:46:29;23.00;99.90
18884;DHT22;9574;47.282;9.640;2022-09-09T15:49:04;23.10;99.90
18884;DHT22;9574;47.282;9.640;2022-09-09T15:51:32;22.90;99.90
18884;DHT22;9574;47.282;9.640;2022-09-09T15:53:59;22.80;99.90
18884;DHT22;9574;47.282;9.640;2022-09-09T15:56:27;22.80;99.90
18884;DHT22;9574;47.282;9.640;2022-09-09T15:58:56;22.80;99.90
18884;DHT22;9574;47.282;9.640;2022-09-09T16:01:25;22.70;99.90
18884;DHT22;9574;47.282;9.640;2022-09-09T16:03:53;22.70;99.90
18884;DHT22;9574;47.282;9.640;2022-09-09T16:06:23;22.50;99.90
18884;DHT22;9574;47.282;9.640;2022-09-09T16:08:51;22.30;99.90
18884;DHT22;9574;47.282;9.640;2022-09-09T16:11:20;22.30;99.90
18884;DHT22;9574;47.282;9.640;2022-09-09T16:13:48;22.20;99.90